Time;durP1;ratioP1;P1;durP2;ratioP2;P2;SDS_P1;SDS_P2;PMS_P1;PMS_P2;Temp;Humidity;BMP_temperature;BMP_pressure;BME280_temperature;BME280_humidity;BME280_pressure;Samples;Min_cycle;Max_cycle;Signal;HPM_P1;HPM_P2
2022/07/12 00:01:48;;;;;;;5.78;3.72;;;;;;;13.60;100.00;102543.97;5053206;28;20060;-79
2022/07/12 00:04:14;;;;;;;8.98;6.20;;;;;;;13.58;100.00;102540.53;5053102;28;20029;-79
2022/07/12 00:06:39;;;;;;;6.70;4.28;;;;;;;13.56;100.00;102537.16;5051225;28;20033;-78
2022/07/12 00:09:05;;;;;;;5.88;4.45;;;;;;;13.51;100.00;102541.97;5052703;28;20037;-79
2022/07/12 00:11:30;;;;;;;10.35;6.82;;;;;;;13.53;100.00;102545.41;5051752;28;20123;-79
2022/07/12 00:13:56;;;;;;;4.63;3.92;;;;;;;13.47;100.00;102546.72;5051510;28;20067;-79
2022/07/12 00:16:22;;;;;;;7.65;5.75;;;;;;;13.45;100.00;102545.13;5051305;28;20120;-79
2022/07/12 00:18:48;;;;;;;5.28;4.50;;;;;;;13.40;100.00;102548.16;5052711;28;20428;-79
2022/07/12 00:21:13;;;;;;;4.47;3.25;;;;;;;13.35;100.00;102545.81;5051368;28;20033;-78
2022/07/12 00:23:38;;;;;;;5.78;4.80;;;;;;;13.36;100.00;102539.53;5052864;28;20033;-79
2022/07/12 00:26:04;;;;;;;8.27;6.20;;;;;;;13.38;100.00;102537.56;5050815;28;20109;-79
2022/07/12 00:28:30;;;;;;;6.00;4.90;;;;;;;13.35;100.00;102532.44;5052391;28;20319;-79
2022/07/12 00:30:56;;;;;;;5.35;4.47;;;;;;;13.29;100.00;102538.22;5052847;28;20108;-79
2022/07/12 00:33:21;;;;;;;5.13;4.20;;;;;;;13.29;100.00;102537.41;5052181;28;20060;-78
2022/07/12 00:35:47;;;;;;;4.70;3.25;;;;;;;13.26;100.00;102532.28;5052332;28;20029;-78
2022/07/12 00:38:12;;;;;;;11.35;7.32;;;;;;;13.31;100.00;102533.63;5050728;28;20115;-78
2022/07/12 00:40:37;;;;;;;6.13;4.63;;;;;;;13.29;100.00;102534.72;5052210;28;20377;-78
2022/07/12 00:43:03;;;;;;;5.70;4.18;;;;;;;13.22;100.00;102532.47;5052374;28;20033;-79
2022/07/12 00:45:28;;;;;;;9.80;6.60;;;;;;;13.26;100.00;102534.94;5050371;28;20148;-79
2022/07/12 00:47:54;;;;;;;11.68;8.27;;;;;;;13.30;100.00;102539.06;5052478;28;20037;-80
2022/07/12 00:50:21;;;;;;;10.15;7.95;;;;;;;13.34;100.00;102529.91;5052257;28;20036;-79
2022/07/12 00:52:48;;;;;;;6.93;5.28;;;;;;;13.28;100.00;102533.84;5051861;28;20036;-79
2022/07/12 00:55:15;;;;;;;10.52;8.10;;;;;;;13.28;100.00;102533.00;5051940;28;20033;-80
2022/07/12 00:57:43;;;;;;;8.23;6.90;;;;;;;13.25;100.00;102522.56;5051682;28;20077;-78
2022/07/12 01:00:11;;;;;;;12.18;7.25;;;;;;;13.26;100.00;102532.28;5051364;28;20059;-79
2022/07/12 01:02:37;;;;;;;11.38;7.20;;;;;;;13.27;100.00;102526.81;5051596;28;20040;-79
2022/07/12 01:05:07;;;;;;;8.25;6.35;;;;;;;13.31;100.00;102530.09;5051172;28;20033;-79
2022/07/12 01:07:34;;;;;;;8.23;6.30;;;;;;;13.30;100.00;102529.25;5051477;28;20120;-79
2022/07/12 01:10:01;;;;;;;8.93;6.25;;;;;;;13.21;100.00;102517.44;5051949;28;20275;-79
2022/07/12 01:12:26;;;;;;;7.00;5.40;;;;;;;13.17;100.00;102517.78;5051486;28;20033;-79
2022/07/12 01:14:52;;;;;;;5.90;5.30;;;;;;;13.08;100.00;102508.63;5052426;28;20142;-80
2022/07/12 01:17:21;;;;;;;6.78;5.70;;;;;;;12.99;100.00;102512.00;5051400;28;20496;-79
2022/07/12 01:19:47;;;;;;;7.75;5.07;;;;;;;12.93;100.00;102510.63;5051458;28;20454;-79
2022/07/12 01:22:16;;;;;;;6.65;4.80;;;;;;;12.90;100.00;102501.97;5051633;28;20371;-80
2022/07/12 01:24:42;;;;;;;8.77;4.40;;;;;;;12.78;100.00;102512.63;5050358;28;20454;-81
2022/07/12 01:27:08;;;;;;;5.93;4.50;;;;;;;12.75;100.00;102523.53;5051712;28;20037;-77
2022/07/12 01:29:35;;;;;;;5.78;4.28;;;;;;;12.72;100.00;102522.88;5051508;28;20454;-78
2022/07/12 01:34:47;;;;;;;3.50;3.20;;;;;;;12.66;100.00;102518.84;5051896;28;20149;-80
2022/07/12 01:37:14;;;;;;;5.25;4.22;;;;;;;12.62;100.00;102520.03;5050226;28;20048;-78
2022/07/12 01:39:40;;;;;;;4.82;3.70;;;;;;;12.63;100.00;102527.94;5051471;28;20108;-78
2022/07/12 01:42:05;;;;;;;8.15;5.75;;;;;;;12.59;100.00;102534.47;5051706;28;20108;-78
2022/07/12 01:44:32;;;;;;;9.40;6.18;;;;;;;12.61;100.00;102531.69;5050222;28;20033;-78
2022/07/12 01:46:58;;;;;;;7.90;5.07;;;;;;;12.61;100.00;102535.19;5051456;28;20085;-78
2022/07/12 01:49:23;;;;;;;6.25;4.85;;;;;;;12.60;100.00;102536.19;5050197;28;20029;-78
2022/07/12 01:51:49;;;;;;;3.83;3.42;;;;;;;12.51;100.00;102543.03;5051520;28;20047;-79
2022/07/12 01:54:14;;;;;;;4.22;3.28;;;;;;;12.44;100.00;102541.75;5050039;28;20414;-79
2022/07/12 01:56:40;;;;;;;11.07;5.70;;;;;;;12.45;100.00;102535.47;5050992;28;20455;-79
2022/07/12 01:59:07;;;;;;;7.53;5.82;;;;;;;12.47;100.00;102541.53;5050589;28;20037;-79
2022/07/12 02:01:33;;;;;;;11.82;6.30;;;;;;;12.51;100.00;102539.50;5049331;28;20041;-79
2022/07/12 02:04:03;;;;;;;8.38;4.68;;;;;;;12.47;100.00;102551.38;5050710;28;20048;-79
2022/07/12 02:06:29;;;;;;;5.53;3.70;;;;;;;12.40;100.00;102552.75;5050616;28;20029;-79
2022/07/12 02:08:54;;;;;;;9.35;5.43;;;;;;;12.38;100.00;102549.38;5050521;28;20033;-79
2022/07/12 02:11:20;;;;;;;6.15;3.97;;;;;;;12.33;100.00;102541.66;5050233;28;20033;-79
2022/07/12 02:13:45;;;;;;;7.43;5.40;;;;;;;12.30;100.00;102545.41;5050258;28;20086;-79
2022/07/12 02:16:10;;;;;;;6.22;4.70;;;;;;;12.27;100.00;102540.31;5048933;28;20119;-79
2022/07/12 02:18:36;;;;;;;6.72;5.60;;;;;;;12.27;100.00;102526.97;5050179;28;20489;-79
2022/07/12 02:21:01;;;;;;;8.25;5.80;;;;;;;12.30;100.00;102529.41;5048957;28;20044;-79
2022/07/12 02:23:27;;;;;;;6.78;4.38;;;;;;;12.29;100.00;102529.50;5050091;28;20469;-79
2022/07/12 02:25:52;;;;;;;4.20;3.47;;;;;;;12.25;100.00;102525.34;5048882;28;20078;-79
2022/07/12 02:28:18;;;;;;;7.40;5.88;;;;;;;12.26;100.00;102527.91;5050256;28;20061;-78
2022/07/12 02:30:43;;;;;;;10.32;5.10;;;;;;;12.28;100.00;102525.13;5050399;28;20078;-78
2022/07/12 02:33:08;;;;;;;6.90;5.50;;;;;;;12.26;100.00;102535.91;5050478;28;20412;-78
2022/07/12 02:35:34;;;;;;;7.22;5.93;;;;;;;12.26;100.00;102533.25;5050031;28;20076;-78
2022/07/12 02:37:59;;;;;;;7.57;5.75;;;;;;;12.31;100.00;102543.59;5048684;28;20430;-78
2022/07/12 02:43:08;;;;;;;5.10;4.40;;;;;;;12.24;100.00;102542.31;5051041;28;20168;-78
2022/07/12 02:45:35;;;;;;;7.68;5.97;;;;;;;12.22;100.00;102533.56;5050266;28;20064;-79
2022/07/12 02:48:02;;;;;;;6.82;5.20;;;;;;;12.20;100.00;102539.03;5049258;28;20158;-79
2022/07/12 02:50:27;;;;;;;9.68;6.43;;;;;;;12.15;100.00;102542.00;5050021;28;20458;-78
2022/07/12 02:52:52;;;;;;;5.72;4.30;;;;;;;12.10;100.00;102541.47;5050106;28;20037;-78
2022/07/12 02:55:18;;;;;;;5.65;3.50;;;;;;;12.03;100.00;102540.19;5050153;28;20115;-78
2022/07/12 02:57:43;;;;;;;6.05;4.95;;;;;;;11.99;100.00;102539.56;5050205;28;20044;-79
2022/07/12 03:00:09;;;;;;;5.72;4.03;;;;;;;11.99;100.00;102536.88;5048828;28;20037;-78
2022/07/12 03:02:34;;;;;;;5.60;4.25;;;;;;;11.96;100.00;102534.44;5032084;28;20041;-78
2022/07/12 03:05:00;;;;;;;6.93;5.50;;;;;;;11.97;100.00;102532.63;5048798;28;20086;-78
2022/07/12 03:07:25;;;;;;;9.52;6.60;;;;;;;11.99;100.00;102534.22;5050098;28;20038;-78
2022/07/12 03:09:51;;;;;;;6.82;5.55;;;;;;;12.01;100.00;102536.78;5050142;28;20488;-78
2022/07/12 03:12:16;;;;;;;12.38;7.03;;;;;;;12.00;100.00;102535.06;5050268;28;20411;-78
2022/07/12 03:14:41;;;;;;;7.10;5.03;;;;;;;12.03;100.00;102537.50;5048482;28;20120;-78
2022/07/12 03:17:07;;;;;;;5.70;4.10;;;;;;;11.95;100.00;102540.72;5049819;28;20033;-78
2022/07/12 03:19:32;;;;;;;7.82;5.90;;;;;;;11.96;100.00;102541.59;5050132;28;20127;-79
2022/07/12 03:21:58;;;;;;;7.25;5.30;;;;;;;11.97;100.00;102544.16;5050026;28;20430;-78
2022/07/12 03:24:23;;;;;;;7.20;5.47;;;;;;;11.94;100.00;102539.03;5049875;28;20535;-79
2022/07/12 03:26:48;;;;;;;5.95;4.70;;;;;;;11.95;100.00;102539.88;5048157;28;20033;-79
2022/07/12 03:29:15;;;;;;;9.55;6.55;;;;;;;11.95;100.00;102537.22;5051425;28;20086;-78
2022/07/12 03:31:40;;;;;;;8.05;6.75;;;;;;;12.00;100.00;102540.41;5053108;28;20159;-78
2022/07/12 03:34:06;;;;;;;8.40;6.18;;;;;;;11.99;100.00;102547.56;5053183;28;20040;-78
2022/07/12 03:36:31;;;;;;;10.10;6.10;;;;;;;11.98;100.00;102540.50;5053068;28;20041;-78
2022/07/12 03:38:56;;;;;;;6.30;4.80;;;;;;;11.94;100.00;102538.16;5053501;28;20132;-78
2022/07/12 03:41:22;;;;;;;10.48;6.93;;;;;;;11.91;100.00;102533.00;5052977;28;20044;-78
2022/07/12 03:43:47;;;;;;;11.23;7.90;;;;;;;11.96;100.00;102544.25;5052825;28;20117;-78
2022/07/12 03:46:12;;;;;;;8.27;6.35;;;;;;;11.96;100.00;102549.59;5052967;28;20472;-78
2022/07/12 03:48:38;;;;;;;6.65;5.32;;;;;;;11.93;100.00;102549.81;5051663;28;20041;-78
2022/07/12 03:51:03;;;;;;;5.82;4.80;;;;;;;11.87;100.00;102548.38;5051364;28;20094;-78
2022/07/12 03:53:29;;;;;;;11.80;7.78;;;;;;;11.89;100.00;102543.78;5053126;28;20363;-78
2022/07/12 03:55:54;;;;;;;11.35;7.47;;;;;;;11.96;100.00;102553.13;5053324;28;20060;-78
2022/07/12 03:58:19;;;;;;;11.23;7.50;;;;;;;12.04;100.00;102551.72;5053036;28;20122;-78
2022/07/12 04:00:45;;;;;;;12.80;7.80;;;;;;;12.12;100.00;102547.56;5052862;28;20029;-78
2022/07/12 04:03:10;;;;;;;11.98;7.85;;;;;;;12.20;100.00;102549.69;5053313;28;20025;-78
2022/07/12 04:05:37;;;;;;;12.93;9.02;;;;;;;12.25;100.00;102547.53;5052456;28;20052;-78
2022/07/12 04:08:02;;;;;;;10.27;7.88;;;;;;;12.33;100.00;102549.66;5051023;28;20094;-78
2022/07/12 04:10:28;;;;;;;9.20;6.93;;;;;;;12.36;100.00;102554.81;5052471;28;20037;-78
2022/07/12 04:12:54;;;;;;;11.45;7.80;;;;;;;12.41;100.00;102557.16;5052724;28;20037;-78
2022/07/12 04:15:20;;;;;;;8.35;6.35;;;;;;;12.44;100.00;102554.25;5052366;28;20047;-78
2022/07/12 04:17:45;;;;;;;9.32;6.88;;;;;;;12.49;100.00;102557.44;5052247;28;20025;-78
2022/07/12 04:20:11;;;;;;;9.13;6.53;;;;;;;12.54;100.00;102549.97;5052505;28;20043;-81
2022/07/12 04:22:38;;;;;;;9.70;6.40;;;;;;;12.59;100.00;102549.63;5052734;28;20056;-81
2022/07/12 04:25:05;;;;;;;9.77;7.18;;;;;;;12.66;100.00;102559.75;5052401;28;20037;-78
2022/07/12 04:27:30;;;;;;;7.15;5.75;;;;;;;12.70;100.00;102550.56;5051125;28;20037;-77
2022/07/12 04:29:56;;;;;;;9.05;5.28;;;;;;;12.82;100.00;102555.97;5051003;28;20037;-79
2022/07/12 04:32:21;;;;;;;8.27;6.13;;;;;;;12.91;100.00;102551.78;5052390;28;20066;-80
2022/07/12 04:34:46;;;;;;;9.60;6.63;;;;;;;13.02;100.00;102563.38;5050335;28;20437;-79
2022/07/12 04:37:11;;;;;;;8.85;6.97;;;;;;;13.13;100.00;102565.25;5052142;28;20033;-80
2022/07/12 04:39:37;;;;;;;8.93;7.30;;;;;;;13.23;100.00;102565.44;5051986;28;20029;-80
2022/07/12 04:42:03;;;;;;;9.48;6.47;;;;;;;13.33;100.00;102558.44;5052568;28;20071;-80
2022/07/12 04:44:28;;;;;;;7.88;5.35;;;;;;;13.43;100.00;102552.41;5034455;28;20064;-80
2022/07/12 04:46:53;;;;;;;6.13;5.00;;;;;;;13.51;100.00;102552.66;5050280;28;20120;-80
2022/07/12 04:49:19;;;;;;;10.32;6.18;;;;;;;13.60;100.00;102551.13;5051919;28;20075;-80
2022/07/12 04:51:45;;;;;;;7.25;5.35;;;;;;;13.70;100.00;102560.16;5052056;28;20484;-80
2022/07/12 04:54:10;;;;;;;7.13;5.78;;;;;;;13.78;100.00;102556.88;5051904;28;20079;-79
2022/07/12 04:56:35;;;;;;;9.63;5.75;;;;;;;13.86;100.00;102555.31;5051614;28;20033;-80
2022/07/12 04:59:01;;;;;;;8.30;6.60;;;;;;;13.93;100.00;102545.84;5050286;28;20510;-80
2022/07/12 05:01:29;;;;;;;8.52;7.40;;;;;;;13.99;100.00;102552.56;5049831;28;20025;-80
2022/07/12 05:03:55;;;;;;;9.75;6.57;;;;;;;14.05;100.00;102556.59;5052512;28;20124;-80
2022/07/12 05:06:22;;;;;;;8.07;6.15;;;;;;;14.07;100.00;102558.16;5051630;28;20479;-80
2022/07/12 05:08:48;;;;;;;8.13;5.82;;;;;;;14.10;100.00;102560.56;5050708;28;20041;-79
2022/07/12 05:11:13;;;;;;;10.13;6.80;;;;;;;14.16;100.00;102567.28;5058516;28;20342;-78
2022/07/12 05:13:39;;;;;;;10.15;7.43;;;;;;;14.21;100.00;102566.91;5054437;28;20380;-79
2022/07/12 05:16:09;;;;;;;10.25;7.40;;;;;;;14.27;100.00;102561.94;5050034;28;20113;-77
2022/07/12 05:18:35;;;;;;;7.88;5.90;;;;;;;14.35;100.00;102577.41;5051417;28;20127;-77
2022/07/12 05:21:01;;;;;;;10.65;7.60;;;;;;;14.40;100.00;102575.19;5051265;28;20111;-78
2022/07/12 05:23:26;;;;;;;8.65;7.10;;;;;;;14.47;100.00;102580.94;5051390;28;20139;-77
2022/07/12 05:25:52;;;;;;;10.10;7.65;;;;;;;14.57;100.00;102575.66;5051351;28;20389;-77
2022/07/12 05:28:17;;;;;;;10.77;8.30;;;;;;;14.68;100.00;102583.75;5051208;28;20106;-77
2022/07/12 05:30:43;;;;;;;11.30;8.35;;;;;;;14.82;100.00;102587.97;5049852;28;20179;-78
2022/07/12 05:33:09;;;;;;;12.20;9.90;;;;;;;14.97;100.00;102583.19;5049622;28;20025;-71
2022/07/12 05:35:34;;;;;;;16.30;9.82;;;;;;;15.11;100.00;102584.75;5051114;28;20037;-70
2022/07/12 05:38:01;;;;;;;13.55;9.70;;;;;;;15.22;100.00;102579.34;5032697;28;20048;-70
2022/07/12 05:40:26;;;;;;;13.02;9.18;;;;;;;15.33;100.00;102589.16;5051098;28;20363;-71
2022/07/12 05:42:51;;;;;;;13.93;9.00;;;;;;;15.46;100.00;102586.31;5050878;28;20076;-71
2022/07/12 05:45:17;;;;;;;10.77;9.13;;;;;;;15.57;100.00;102586.28;5049078;28;20037;-72
2022/07/12 05:47:42;;;;;;;10.93;8.85;;;;;;;15.66;100.00;102581.97;5049298;28;20064;-73
2022/07/12 05:50:08;;;;;;;9.25;8.27;;;;;;;15.75;100.00;102585.69;5049379;28;20065;-72
2022/07/12 05:55:17;;;;;;;10.95;8.30;;;;;;;15.95;100.00;102578.66;5050458;28;20171;-72
2022/07/12 05:57:43;;;;;;;11.73;8.10;;;;;;;16.04;100.00;102577.84;5048938;28;20037;-73
2022/07/12 06:00:09;;;;;;;11.05;8.18;;;;;;;16.12;100.00;102578.06;5050570;28;20061;-71
2022/07/12 06:02:34;;;;;;;8.50;7.70;;;;;;;16.18;100.00;102573.97;5050564;28;20052;-70
2022/07/12 06:04:59;;;;;;;13.40;8.82;;;;;;;16.24;100.00;102578.78;5050569;28;20029;-71
2022/07/12 06:07:25;;;;;;;10.40;7.70;;;;;;;16.29;100.00;102581.09;5050321;28;20132;-70
2022/07/12 06:09:50;;;;;;;13.75;7.68;;;;;;;16.32;100.00;102575.47;5048772;28;20040;-72
2022/07/12 06:12:15;;;;;;;10.63;8.25;;;;;;;16.35;100.00;102580.56;5050241;28;20033;-71
2022/07/12 06:14:41;;;;;;;12.63;8.32;;;;;;;16.39;100.00;102582.84;5049741;28;20057;-72
2022/07/12 06:17:07;;;;;;;9.63;8.63;;;;;;;16.50;100.00;102584.56;5049849;28;20028;-69
2022/07/12 06:19:33;;;;;;;14.90;8.63;;;;;;;16.67;100.00;102588.44;5050925;28;20104;-70
2022/07/12 06:21:58;;;;;;;9.75;8.15;;;;;;;16.82;100.00;102590.75;5050272;28;20110;-70
2022/07/12 06:24:23;;;;;;;10.95;8.23;;;;;;;17.02;100.00;102589.00;5049834;28;20040;-70
2022/07/12 06:26:49;;;;;;;9.25;7.57;;;;;;;17.24;100.00;102591.44;5050048;28;20036;-71
2022/07/12 06:29:14;;;;;;;9.63;8.00;;;;;;;17.51;100.00;102597.06;5050540;28;20037;-70
2022/07/12 06:31:40;;;;;;;9.88;6.85;;;;;;;17.76;100.00;102596.47;5050500;28;20593;-70
2022/07/12 06:34:05;;;;;;;13.70;7.95;;;;;;;18.00;100.00;102599.75;5050616;28;20116;-71
2022/07/12 06:36:30;;;;;;;7.75;6.68;;;;;;;18.21;100.00;102603.06;5048387;28;20120;-70
2022/07/12 06:38:56;;;;;;;9.80;7.32;;;;;;;18.35;100.00;102606.28;5050042;28;20118;-71
2022/07/12 06:41:21;;;;;;;12.07;7.00;;;;;;;18.46;100.00;102601.56;5050548;28;20369;-71
2022/07/12 06:43:46;;;;;;;18.98;7.28;;;;;;;18.60;99.07;102610.16;5050442;28;20036;-70
2022/07/12 06:46:12;;;;;;;10.70;6.38;;;;;;;18.77;98.01;102612.06;5050283;28;20354;-71
2022/07/12 06:48:37;;;;;;;11.30;6.47;;;;;;;18.93;96.37;102607.88;5049903;28;20040;-71
2022/07/12 06:51:02;;;;;;;9.00;6.07;;;;;;;19.10;93.80;102606.22;5032232;28;20315;-71
2022/07/12 06:53:28;;;;;;;10.50;6.55;;;;;;;19.25;91.88;102598.44;5050531;28;20060;-70
2022/07/12 06:55:53;;;;;;;9.40;6.65;;;;;;;19.38;91.25;102605.16;5049843;28;20333;-70
2022/07/12 06:58:18;;;;;;;10.05;6.13;;;;;;;19.52;88.68;102606.44;5049498;28;20448;-70
2022/07/12 07:00:44;;;;;;;6.40;5.80;;;;;;;19.66;88.30;102604.19;5049995;28;20458;-71
2022/07/12 07:03:10;;;;;;;7.13;5.45;;;;;;;19.79;87.07;102588.47;5050312;28;20124;-70
2022/07/12 07:05:38;;;;;;;6.93;5.72;;;;;;;19.99;86.25;102596.34;5053735;28;20033;-71
2022/07/12 07:08:05;;;;;;;16.98;5.97;;;;;;;20.23;84.08;102595.69;5053869;28;20037;-71
2022/07/12 07:10:30;;;;;;;9.55;5.45;;;;;;;20.57;84.08;102592.09;5053855;28;20056;-70
2022/07/12 07:12:56;;;;;;;13.07;6.03;;;;;;;20.81;81.32;102604.06;5053813;28;20454;-69
2022/07/12 07:15:21;;;;;;;7.80;5.25;;;;;;;21.11;79.97;102603.47;5053778;28;20033;-71
2022/07/12 07:17:47;;;;;;;8.90;5.47;;;;;;;21.32;78.75;102599.44;5052160;28;20359;-72
2022/07/12 07:20:12;;;;;;;6.90;5.07;;;;;;;21.52;77.25;102596.44;5053947;28;20071;-73
2022/07/12 07:22:39;;;;;;;5.78;4.85;;;;;;;21.63;76.61;102596.06;5053770;28;20037;-71
2022/07/12 07:25:05;;;;;;;9.07;5.22;;;;;;;21.70;75.23;102601.66;5053582;28;20496;-71
2022/07/12 07:27:31;;;;;;;12.93;5.10;;;;;;;21.63;75.22;102593.34;5054222;28;20041;-72
2022/07/12 07:32:40;;;;;;;7.95;4.55;;;;;;;21.43;75.33;102590.97;5053618;28;20063;-72
2022/07/12 07:35:06;;;;;;;7.85;4.10;;;;;;;21.23;72.87;102590.47;5053451;28;20029;-72
2022/07/12 07:37:33;;;;;;;6.50;4.22;;;;;;;21.05;73.19;102596.00;5053366;28;20033;-75
2022/07/12 07:39:58;;;;;;;7.82;3.90;;;;;;;20.87;74.09;102593.44;5053399;28;20044;-73
2022/07/12 07:42:23;;;;;;;5.80;3.92;;;;;;;20.69;75.16;102589.97;5053302;28;20073;-75
2022/07/12 07:44:49;;;;;;;7.45;4.15;;;;;;;20.59;75.93;102593.63;5051916;28;20029;-73
2022/07/12 07:47:14;;;;;;;4.63;3.80;;;;;;;20.52;76.71;102597.16;5053465;28;20156;-71
2022/07/12 07:49:39;;;;;;;7.85;4.15;;;;;;;20.59;76.80;102595.50;5053426;28;20445;-72
2022/07/12 07:52:05;;;;;;;8.23;4.25;;;;;;;20.72;76.54;102604.03;5052787;28;20410;-72
2022/07/12 07:54:30;;;;;;;12.20;4.00;;;;;;;20.94;76.92;102604.44;5053350;28;20033;-72
2022/07/12 07:56:56;;;;;;;8.40;4.80;;;;;;;21.18;74.80;102600.09;5053231;28;20449;-73
2022/07/12 07:59:21;;;;;;;6.32;4.18;;;;;;;21.35;73.83;102599.09;5052701;28;20469;-72
2022/07/12 08:01:48;;;;;;;10.35;4.97;;;;;;;21.45;72.48;102598.91;5053054;28;20317;-72
2022/07/12 08:04:15;;;;;;;7.38;4.70;;;;;;;21.40;72.84;102602.13;5052803;28;20099;-73
2022/07/12 08:06:42;;;;;;;9.63;4.50;;;;;;;21.28;71.96;102604.31;5052421;28;20457;-72
2022/07/12 08:09:08;;;;;;;5.45;4.80;;;;;;;21.11;73.24;102603.47;5050877;28;20070;-69
2022/07/12 08:11:33;;;;;;;11.43;4.90;;;;;;;21.06;76.23;102604.97;5052598;28;20033;-69
2022/07/12 08:13:59;;;;;;;7.65;4.90;;;;;;;21.19;75.09;102608.03;5051618;28;20037;-71
2022/07/12 08:16:25;;;;;;;7.63;5.03;;;;;;;21.54;73.56;102605.22;5052530;28;20036;-71
2022/07/12 08:18:51;;;;;;;6.65;4.45;;;;;;;21.95;73.32;102606.03;5052733;28;20032;-71
2022/07/12 08:21:17;;;;;;;8.85;5.03;;;;;;;22.40;72.39;102611.88;5052639;28;20410;-70
2022/07/12 08:23:42;;;;;;;9.80;4.47;;;;;;;22.91;71.03;102605.22;5051978;28;20036;-74
2022/07/12 08:26:07;;;;;;;9.75;5.00;;;;;;;23.41;67.09;102595.72;5052024;28;20111;-74
2022/07/12 08:28:33;;;;;;;6.32;4.30;;;;;;;24.02;64.79;102592.97;5050579;28;20041;-73
2022/07/12 08:30:58;;;;;;;15.68;4.25;;;;;;;24.52;63.07;102587.78;5052485;28;20029;-74
2022/07/12 08:33:24;;;;;;;11.38;5.00;;;;;;;24.92;57.71;102590.19;5051992;28;20418;-73
2022/07/12 08:35:49;;;;;;;9.02;4.68;;;;;;;25.29;58.28;102599.13;5052082;28;20079;-73
2022/07/12 08:38:15;;;;;;;7.93;4.97;;;;;;;25.57;56.22;102595.63;5050390;28;20040;-76
2022/07/12 08:40:41;;;;;;;7.95;5.53;;;;;;;25.92;54.11;102591.09;5051500;28;20033;-73
2022/07/12 08:43:07;;;;;;;5.13;4.47;;;;;;;26.25;55.83;102595.09;5051935;28;20087;-73
2022/07/12 08:45:32;;;;;;;7.70;5.30;;;;;;;26.51;51.47;102587.03;5051823;28;20049;-75
2022/07/12 08:47:58;;;;;;;7.75;4.82;;;;;;;26.55;52.29;102585.56;5051794;28;20043;-78
2022/07/12 08:50:24;;;;;;;7.07;4.85;;;;;;;26.76;50.61;102578.31;5051851;28;20479;-76
2022/07/12 08:52:52;;;;;;;13.95;5.38;;;;;;;26.91;52.19;102583.59;5049868;28;20462;-75
2022/07/12 08:55:28;;;;;;;4.85;4.15;;;;;;;26.92;52.18;102585.31;5051604;28;20056;-76
2022/07/12 08:57:56;;;;;;;8.32;4.22;;;;;;;27.17;50.11;102582.81;5051744;28;20033;-74
2022/07/12 09:00:22;;;;;;;10.43;4.68;;;;;;;27.12;49.90;102589.97;5051616;28;20402;-72
2022/07/12 09:02:59;;;;;;;7.32;4.35;;;;;;;27.10;49.58;102588.25;5051095;28;20331;-76
2022/07/12 09:05:31;;;;;;;7.32;4.63;;;;;;;27.02;50.18;102590.34;5051239;28;20033;-74
2022/07/12 09:08:08;;;;;;;6.78;3.88;;;;;;;27.28;50.18;102595.03;5050418;28;20134;-72
2022/07/12 09:10:34;;;;;;;5.90;3.92;;;;;;;27.99;48.62;102599.03;5051369;28;20053;-74
2022/07/12 09:13:01;;;;;;;10.07;4.00;;;;;;;28.87;44.25;102589.44;5051264;28;20025;-74
2022/07/12 09:15:27;;;;;;;9.05;4.50;;;;;;;29.16;43.94;102590.72;5051142;28;20426;-73
2022/07/12 09:17:58;;;;;;;6.82;4.07;;;;;;;29.87;44.00;102587.84;5051072;28;20101;-73
2022/07/12 09:20:29;;;;;;;6.57;4.10;;;;;;;30.25;41.10;102587.63;5051140;28;20040;-75
2022/07/12 09:22:57;;;;;;;6.40;4.00;;;;;;;30.35;41.13;102580.75;5049525;28;20491;-74
2022/07/12 09:25:23;;;;;;;7.80;4.10;;;;;;;30.23;41.96;102587.03;5051147;28;20043;-73
2022/07/12 09:27:57;;;;;;;7.28;3.67;;;;;;;29.86;40.58;102576.03;5049983;28;20025;-75
2022/07/12 09:30:24;;;;;;;6.35;4.35;;;;;;;29.94;40.41;102583.13;5051222;28;20036;-73
2022/07/12 09:36:12;;;;;;;6.78;4.00;;;;;;;30.33;38.67;102577.41;5051126;28;20052;-74
2022/07/12 09:38:54;;;;;;;12.27;4.32;;;;;;;30.53;39.66;102577.16;5049253;28;20130;-74
2022/07/12 09:41:21;;;;;;;9.07;3.42;;;;;;;31.41;37.23;102575.66;5050397;28;20402;-74
2022/07/12 09:43:47;;;;;;;3.83;3.28;;;;;;;31.76;36.69;102566.59;5049663;28;20449;-74
2022/07/12 09:46:17;;;;;;;7.43;3.38;;;;;;;32.21;36.79;102576.13;5050526;28;20049;-77
2022/07/12 09:48:47;;;;;;;7.45;3.03;;;;;;;32.05;35.96;102563.09;5050672;28;20043;-74
2022/07/12 09:51:17;;;;;;;5.25;3.17;;;;;;;32.26;35.11;102564.38;5049583;28;20040;-75
2022/07/12 09:53:47;;;;;;;4.38;2.72;;;;;;;32.49;36.09;102566.22;5050496;28;20461;-74
2022/07/12 09:56:19;;;;;;;;;;;;;;;32.45;34.05;102570.53;5051025;28;20037;-74
2022/07/12 09:58:55;;;;;;;4.38;3.17;;;;;;;32.31;34.69;102581.00;5048969;28;20087;-75
2022/07/12 10:01:21;;;;;;;5.55;3.78;;;;;;;31.66;35.52;102582.03;5050244;28;20037;-75
2022/07/12 10:03:47;;;;;;;9.93;3.20;;;;;;;31.39;36.13;102587.97;5050429;28;20075;-75
2022/07/12 10:06:17;;;;;;;7.03;3.15;;;;;;;31.61;36.51;102580.00;5049988;28;20037;-74
2022/07/12 10:08:43;;;;;;;6.28;3.25;;;;;;;31.93;36.06;102577.72;5050425;28;20033;-73
2022/07/12 10:11:13;;;;;;;10.32;3.25;;;;;;;32.16;35.47;102587.88;5049884;28;20094;-73
2022/07/12 10:13:38;;;;;;;10.57;3.95;;;;;;;32.30;33.84;102582.91;5049829;28;20318;-73
2022/07/12 10:16:07;;;;;;;7.75;3.75;;;;;;;31.55;35.28;102595.53;5050423;28;20029;-73
2022/07/12 10:18:33;;;;;;;8.00;3.40;;;;;;;31.51;35.84;102587.97;5049737;28;20080;-75
2022/07/12 10:20:58;;;;;;;4.63;3.15;;;;;;;31.30;35.09;102588.31;5049711;28;20418;-73
2022/07/12 10:23:33;;;;;;;6.80;3.60;;;;;;;31.15;36.23;102589.84;5049843;28;20040;-73
2022/07/12 10:25:59;;;;;;;9.60;3.50;;;;;;;30.86;35.91;102598.69;5049920;28;20025;-73
2022/07/12 10:29:01;;;;;;;8.20;3.05;;;;;;;30.65;37.07;102590.97;5049303;28;20032;-74
2022/07/12 10:31:35;;;;;;;8.93;3.55;;;;;;;30.87;36.85;102589.41;5049811;28;20033;-73
2022/07/12 10:34:24;;;;;;;6.05;2.95;;;;;;;30.99;36.30;102591.34;5049590;28;20028;-73
2022/07/12 10:36:55;;;;;;;7.38;2.88;;;;;;;31.47;35.38;102596.72;5049543;28;20044;-73
2022/07/12 10:39:28;;;;;;;4.35;2.70;;;;;;;32.13;34.85;102593.84;5049057;28;20457;-73
2022/07/12 10:42:05;;;;;;;7.03;3.20;;;;;;;31.91;34.44;102598.28;5049568;28;20036;-73
2022/07/12 10:44:38;;;;;;;8.02;3.20;;;;;;;32.50;33.85;102593.50;5048985;28;20033;-73
2022/07/12 10:47:06;;;;;;;6.18;3.00;;;;;;;33.49;31.50;102583.16;5049239;28;20110;-73
2022/07/12 10:49:33;;;;;;;4.40;2.85;;;;;;;33.37;32.54;102579.66;5049325;28;20029;-73
2022/07/12 10:52:10;;;;;;;6.68;3.00;;;;;;;33.76;30.35;102579.72;5048960;28;20025;-73
2022/07/12 10:55:14;;;;;;;4.97;2.88;;;;;;;33.90;31.68;102571.91;5048980;28;20132;-72
2022/07/12 10:57:44;;;;;;;2.85;2.55;;;;;;;34.36;30.43;102571.66;5027130;28;20357;-72
2022/07/12 11:00:10;;;;;;;;;;;;;;;34.84;30.94;102574.69;5049675;28;20083;-72
2022/07/12 11:02:36;;;;;;;5.22;2.40;;;;;;;34.71;30.01;102568.47;5049177;28;19909;-73
2022/07/12 11:05:03;;;;;;;12.85;2.70;;;;;;;34.70;29.46;102568.72;5049063;28;20342;-73
2022/07/12 11:07:29;;;;;;;7.07;2.65;;;;;;;34.27;28.94;102560.25;5049492;28;20186;-73
2022/07/12 11:09:55;;;;;;;6.53;2.50;;;;;;;34.58;29.26;102560.59;5049362;28;20145;-73
2022/07/12 11:12:28;;;;;;;4.93;2.60;;;;;;;35.14;28.06;102572.19;5049060;28;20082;-74
2022/07/12 11:14:54;;;;;;;4.82;2.70;;;;;;;35.06;28.01;102561.59;5049699;28;20029;-74
2022/07/12 11:17:30;;;;;;;5.25;2.67;;;;;;;34.94;27.21;102559.00;5049274;28;20094;-76
2022/07/12 11:20:04;;;;;;;5.93;2.33;;;;;;;34.83;29.17;102560.03;5049068;28;20029;-73
2022/07/12 11:22:31;;;;;;;4.03;2.53;;;;;;;35.00;25.26;102556.31;5049180;28;20036;-72
2022/07/12 11:24:57;;;;;;;9.45;2.70;;;;;;;35.21;27.20;102560.06;5049486;28;20054;-73
2022/07/12 11:27:23;;;;;;;5.18;2.30;;;;;;;35.03;28.67;102561.31;5049217;28;20106;-73
2022/07/12 11:30:01;;;;;;;4.57;2.50;;;;;;;34.92;26.58;102561.22;5049177;28;20056;-73
2022/07/12 11:32:41;;;;;;;4.53;2.42;;;;;;;35.01;28.40;102563.47;5049355;28;20314;-72